Time;durP1;ratioP1;P1;durP2;ratioP2;P2;SDS_P1;SDS_P2;PMS_P1;PMS_P2;Temp;Humidity;BMP_temperature;BMP_pressure;BME280_temperature;BME280_humidity;BME280_pressure;Samples;Min_cycle;Max_cycle;Signal;HPM_P1;HPM_P2
2021/06/11 00:00:48;;;;;;;4.38;2.10;;;;;;;;;;5014622;28;20069;-50
2021/06/11 00:03:14;;;;;;;2.42;2.20;;;;;;;;;;5014982;28;20029;-50
2021/06/11 00:05:40;;;;;;;2.90;2.30;;;;;;;;;;5014664;28;20497;-51
2021/06/11 00:08:07;;;;;;;3.15;1.88;;;;;;;;;;5015042;28;20113;-50
2021/06/11 00:10:33;;;;;;;4.85;2.20;;;;;;;;;;5014505;28;20167;-50
2021/06/11 00:12:59;;;;;;;3.88;2.60;;;;;;;;;;5014970;28;20117;-50
2021/06/11 00:15:26;;;;;;;2.55;1.95;;;;;;;;;;5013127;28;20378;-49
2021/06/11 00:17:52;;;;;;;3.25;2.15;;;;;;;;;;5016079;28;20037;-51
2021/06/11 00:20:18;;;;;;;5.57;2.40;;;;;;;;;;5014776;28;20037;-50
2021/06/11 00:22:45;;;;;;;3.22;2.08;;;;;;;;;;5020146;28;20018;-49
2021/06/11 00:25:12;;;;;;;4.78;2.40;;;;;;;;;;5014005;28;20029;-51
2021/06/11 00:27:38;;;;;;;3.10;2.08;;;;;;;;;;5016534;28;20034;-51
2021/06/11 00:30:05;;;;;;;6.75;2.33;;;;;;;;;;5016366;28;20045;-51
2021/06/11 00:32:30;;;;;;;4.88;2.03;;;;;;;;;;5018853;28;20132;-50
2021/06/11 00:34:56;;;;;;;3.75;2.50;;;;;;;;;;5014388;28;20109;-50
2021/06/11 00:37:22;;;;;;;2.88;2.40;;;;;;;;;;5013964;28;20363;-51
2021/06/11 00:39:48;;;;;;;4.55;2.50;;;;;;;;;;5014116;28;20026;-53
2021/06/11 00:42:14;;;;;;;2.45;2.25;;;;;;;;;;5014136;28;20030;-52
2021/06/11 00:44:40;;;;;;;4.10;2.63;;;;;;;;;;5015463;28;20030;-50
2021/06/11 00:47:07;;;;;;;3.80;2.88;;;;;;;;;;5014230;28;20102;-50
2021/06/11 00:49:33;;;;;;;2.55;2.33;;;;;;;;;;5014238;28;20028;-50
2021/06/11 00:51:59;;;;;;;5.57;2.75;;;;;;;;;;5014559;28;20029;-49
2021/06/11 00:54:25;;;;;;;2.90;2.63;;;;;;;;;;5014312;28;20030;-49
2021/06/11 00:56:51;;;;;;;3.22;2.42;;;;;;;;;;5013429;28;20022;-50
2021/06/11 00:59:19;;;;;;;3.00;2.50;;;;;;;;;;5014239;28;20034;-49
2021/06/11 01:01:45;;;;;;;4.25;2.65;;;;;;;;;;5014991;28;20030;-49
2021/06/11 01:04:11;;;;;;;3.10;2.58;;;;;;;;;;5013687;28;20025;-50
2021/06/11 01:06:39;;;;;;;4.07;2.67;;;;;;;;;;5013658;28;20436;-50
2021/06/11 01:09:05;;;;;;;4.85;2.58;;;;;;;;;;5013863;28;20037;-49
2021/06/11 01:11:31;;;;;;;3.08;2.58;;;;;;;;;;5013229;28;20553;-50
2021/06/11 01:13:58;;;;;;;6.18;2.40;;;;;;;;;;5013834;28;20026;-51
2021/06/11 01:16:24;;;;;;;4.07;2.70;;;;;;;;;;5013744;28;20030;-50
2021/06/11 01:18:50;;;;;;;4.07;2.72;;;;;;;;;;5013541;28;20509;-50
2021/06/11 01:21:17;;;;;;;4.05;2.33;;;;;;;;;;5013511;28;20041;-50
2021/06/11 01:24:00;;;;;;;7.28;2.80;;;;;;;;;;5013400;28;20018;-50
2021/06/11 01:26:29;;;;;;;3.45;2.70;;;;;;;;;;5013008;28;20100;-50
2021/06/11 01:28:57;;;;;;;9.40;3.22;;;;;;;;;;5022117;28;20030;-49
2021/06/11 01:31:25;;;;;;;3.35;2.40;;;;;;;;;;5017438;28;20537;-49
2021/06/11 01:33:57;;;;;;;3.97;2.88;;;;;;;;;;5013400;28;20034;-50
2021/06/11 01:36:25;;;;;;;3.75;2.47;;;;;;;;;;5013198;28;20533;-50
2021/06/11 01:38:51;;;;;;;4.82;2.35;;;;;;;;;;5012161;28;20033;-51
2021/06/11 01:41:19;;;;;;;3.67;2.80;;;;;;;;;;5009135;28;20123;-50
2021/06/11 01:43:47;;;;;;;5.05;2.75;;;;;;;;;;5013431;28;20045;-49
2021/06/11 01:46:14;;;;;;;4.32;2.70;;;;;;;;;;5013034;28;20104;-50
2021/06/11 01:48:42;;;;;;;3.38;2.53;;;;;;;;;;5013167;28;20029;-52
2021/06/11 01:51:09;;;;;;;2.70;2.30;;;;;;;;;;5012319;28;20034;-52
2021/06/11 01:53:37;;;;;;;3.53;2.50;;;;;;;;;;5012953;28;20113;-51
2021/06/11 01:56:03;;;;;;;3.83;2.83;;;;;;;;;;5014680;28;20044;-49
2021/06/11 01:58:30;;;;;;;4.07;2.65;;;;;;;;;;5013333;28;20026;-51
2021/06/11 02:00:56;;;;;;;5.57;3.17;;;;;;;;;;5014444;28;20037;-54
2021/06/11 02:03:23;;;;;;;4.72;2.80;;;;;;;;;;5003759;28;20088;-50
2021/06/11 02:05:49;;;;;;;5.43;3.10;;;;;;;;;;5012047;28;20049;-51
2021/06/11 02:08:16;;;;;;;2.85;2.58;;;;;;;;;;5014620;28;20057;-49
2021/06/11 02:10:43;;;;;;;3.95;3.00;;;;;;;;;;5012268;28;20117;-49
2021/06/11 02:13:09;;;;;;;3.28;2.60;;;;;;;;;;5012773;28;20037;-50
2021/06/11 02:15:35;;;;;;;3.05;2.58;;;;;;;;;;5012432;28;20403;-49
2021/06/11 02:18:02;;;;;;;4.07;3.22;;;;;;;;;;5012774;28;20037;-50
2021/06/11 02:20:28;;;;;;;4.60;3.45;;;;;;;;;;5012232;28;20026;-49
2021/06/11 02:22:54;;;;;;;3.58;2.80;;;;;;;;;;5012482;28;20757;-49
2021/06/11 02:25:22;;;;;;;5.22;3.00;;;;;;;;;;5012247;28;20034;-49
2021/06/11 02:27:48;;;;;;;4.05;3.10;;;;;;;;;;5015777;28;20037;-49
2021/06/11 02:30:17;;;;;;;6.05;3.15;;;;;;;;;;5013220;28;20033;-49
2021/06/11 02:32:43;;;;;;;3.97;2.92;;;;;;;;;;5016480;28;20060;-50
2021/06/11 02:35:11;;;;;;;3.83;3.03;;;;;;;;;;5014962;28;20561;-49
2021/06/11 02:37:37;;;;;;;3.72;3.30;;;;;;;;;;5012348;28;20096;-49
2021/06/11 02:40:05;;;;;;;3.95;2.80;;;;;;;;;;5012174;28;20034;-49
2021/06/11 02:42:31;;;;;;;3.88;2.90;;;;;;;;;;5011907;28;20026;-50
2021/06/11 02:45:00;;;;;;;4.55;2.92;;;;;;;;;;5012344;28;20030;-50
2021/06/11 02:47:36;;;;;;;7.78;3.15;;;;;;;;;;5017213;28;20037;-51
2021/06/11 02:50:04;;;;;;;4.22;3.20;;;;;;;;;;5012005;28;20033;-51
2021/06/11 02:52:30;;;;;;;5.05;2.95;;;;;;;;;;5012446;28;20045;-51
2021/06/11 02:54:59;;;;;;;3.70;3.22;;;;;;;;;;5011801;28;20125;-53
2021/06/11 02:57:30;;;;;;;4.30;3.13;;;;;;;;;;5011754;28;20030;-52
2021/06/11 03:00:01;;;;;;;3.63;3.13;;;;;;;;;;5012034;28;20129;-51
2021/06/11 03:02:29;;;;;;;3.78;2.88;;;;;;;;;;5013460;28;20034;-51
2021/06/11 03:04:56;;;;;;;3.35;3.05;;;;;;;;;;5007231;28;20030;-50
2021/06/11 03:07:26;;;;;;;3.67;3.10;;;;;;;;;;5011276;28;20026;-52
2021/06/11 03:09:56;;;;;;;3.72;3.13;;;;;;;;;;5012300;28;20033;-50
2021/06/11 03:12:22;;;;;;;7.43;3.03;;;;;;;;;;5020775;28;20048;-49
2021/06/11 03:14:49;;;;;;;5.15;3.38;;;;;;;;;;5014280;28;20018;-51
2021/06/11 03:17:16;;;;;;;3.65;2.85;;;;;;;;;;5015700;28;20057;-50
2021/06/11 03:19:47;;;;;;;3.90;3.20;;;;;;;;;;5016172;28;20426;-51
2021/06/11 03:22:15;;;;;;;4.25;3.58;;;;;;;;;;5015567;28;20514;-49
2021/06/11 03:24:51;;;;;;;3.15;2.75;;;;;;;;;;5015901;28;20500;-49
2021/06/11 03:27:19;;;;;;;4.55;3.20;;;;;;;;;;5011876;28;20061;-50
2021/06/11 03:29:49;;;;;;;3.42;2.95;;;;;;;;;;5020288;28;20120;-49
2021/06/11 03:32:32;;;;;;;2.78;2.47;;;;;;;;;;5020808;28;20076;-50
2021/06/11 03:35:02;;;;;;;3.53;2.80;;;;;;;;;;5020991;28;20100;-51
2021/06/11 03:37:31;;;;;;;3.97;2.80;;;;;;;;;;5015416;28;20088;-49
2021/06/11 03:40:01;;;;;;;3.47;2.92;;;;;;;;;;5011109;28;20118;-50
2021/06/11 03:42:29;;;;;;;5.65;2.75;;;;;;;;;;5015570;28;20121;-49
2021/06/11 03:44:56;;;;;;;3.35;2.92;;;;;;;;;;5015389;28;20108;-54
2021/06/11 03:47:24;;;;;;;3.95;2.95;;;;;;;;;;5015286;28;20477;-49
2021/06/11 03:49:51;;;;;;;4.18;3.17;;;;;;;;;;5015357;28;20109;-52
2021/06/11 03:52:21;;;;;;;3.97;3.10;;;;;;;;;;5015176;28;20480;-49
2021/06/11 03:54:47;;;;;;;6.05;3.40;;;;;;;;;;5012129;28;20444;-49
2021/06/11 03:57:14;;;;;;;3.75;3.00;;;;;;;;;;5014703;28;20029;-49
2021/06/11 03:59:40;;;;;;;5.07;3.53;;;;;;;;;;5016201;28;20160;-49
2021/06/11 04:02:07;;;;;;;4.85;3.33;;;;;;;;;;5013621;28;20120;-49
2021/06/11 04:04:33;;;;;;;4.05;3.35;;;;;;;;;;5016209;28;20022;-50
2021/06/11 04:07:08;;;;;;;3.42;3.05;;;;;;;;;;5014708;28;20474;-49
2021/06/11 04:09:41;;;;;;;4.90;3.20;;;;;;;;;;5015127;28;20029;-50
2021/06/11 04:12:07;;;;;;;;;;;;;;;;;;5016626;28;20030;-50
2021/06/11 04:14:40;;;;;;;4.40;3.65;;;;;;;;;;5015230;28;19987;-50
2021/06/11 04:17:10;;;;;;;7.88;3.85;;;;;;;;;;5014381;28;20496;-49
2021/06/11 04:19:41;;;;;;;4.70;4.20;;;;;;;;;;5018395;28;20080;-50
2021/06/11 04:22:07;;;;;;;21.42;4.28;;;;;;;;;;5013658;28;20091;-50
2021/06/11 04:24:34;;;;;;;4.35;3.38;;;;;;;;;;5018593;28;20030;-50
2021/06/11 04:27:01;;;;;;;4.88;3.30;;;;;;;;;;5015754;28;20040;-50
2021/06/11 04:29:30;;;;;;;3.65;3.25;;;;;;;;;;5021511;28;20029;-49
2021/06/11 04:31:56;;;;;;;4.45;4.03;;;;;;;;;;5017462;28;20124;-50
2021/06/11 04:34:24;;;;;;;4.05;3.40;;;;;;;;;;5019228;28;20044;-50
2021/06/11 04:36:51;;;;;;;5.30;3.22;;;;;;;;;;5017256;28;20034;-49
2021/06/11 04:39:17;;;;;;;4.13;2.90;;;;;;;;;;5017511;28;20404;-52
2021/06/11 04:41:43;;;;;;;5.88;3.60;;;;;;;;;;5015254;28;20140;-51
2021/06/11 04:44:09;;;;;;;5.72;3.30;;;;;;;;;;5014932;28;20423;-51
2021/06/11 04:46:35;;;;;;;3.75;3.00;;;;;;;;;;5016325;28;20128;-52
2021/06/11 04:49:01;;;;;;;3.53;3.22;;;;;;;;;;5015609;28;20097;-50
2021/06/11 04:51:28;;;;;;;6.03;3.58;;;;;;;;;;5015182;28;20022;-51
2021/06/11 04:53:54;;;;;;;4.15;3.22;;;;;;;;;;5016919;28;20018;-49
2021/06/11 04:56:20;;;;;;;4.28;3.47;;;;;;;;;;5013664;28;20045;-54
2021/06/11 04:58:51;;;;;;;6.18;3.70;;;;;;;;;;5018246;28;20489;-52
2021/06/11 05:01:17;;;;;;;4.75;3.92;;;;;;;;;;5013008;28;21744;-52
2021/06/11 05:03:43;;;;;;;3.65;3.15;;;;;;;;;;5017725;28;20105;-52
2021/06/11 05:06:09;;;;;;;5.13;3.35;;;;;;;;;;5013063;28;20140;-50
2021/06/11 05:08:35;;;;;;;5.00;3.47;;;;;;;;;;5014516;28;20114;-51
2021/06/11 05:11:02;;;;;;;3.95;3.30;;;;;;;;;;5013733;28;20076;-53
2021/06/11 05:13:28;;;;;;;4.53;3.22;;;;;;;;;;5018068;28;20385;-50
2021/06/11 05:15:54;;;;;;;4.07;3.10;;;;;;;;;;5016018;28;20053;-50
2021/06/11 05:18:20;;;;;;;5.22;3.38;;;;;;;;;;5014533;28;20033;-51
2021/06/11 05:20:46;;;;;;;3.72;3.20;;;;;;;;;;5014943;28;20124;-50
2021/06/11 05:23:12;;;;;;;4.28;3.58;;;;;;;;;;5022210;28;20586;-50
2021/06/11 05:25:38;;;;;;;4.30;3.33;;;;;;;;;;5012437;28;20068;-49
2021/06/11 05:28:05;;;;;;;3.50;3.15;;;;;;;;;;5019879;28;20029;-50
2021/06/11 05:30:31;;;;;;;3.97;3.17;;;;;;;;;;5018770;28;20037;-50
2021/06/11 05:32:58;;;;;;;4.40;3.58;;;;;;;;;;5023719;28;20478;-49
2021/06/11 05:35:24;;;;;;;4.65;3.10;;;;;;;;;;5021581;28;20083;-50
2021/06/11 05:37:50;;;;;;;6.82;3.67;;;;;;;;;;5017713;28;20470;-50
2021/06/11 05:40:17;;;;;;;6.25;3.28;;;;;;;;;;5010319;28;20072;-51
2021/06/11 05:42:43;;;;;;;4.28;3.70;;;;;;;;;;5026246;28;20032;-50
2021/06/11 05:45:10;;;;;;;5.07;3.78;;;;;;;;;;5032835;28;20402;-51
2021/06/11 05:47:39;;;;;;;4.10;2.97;;;;;;;;;;5022206;28;20101;-51
2021/06/11 05:50:06;;;;;;;4.05;3.20;;;;;;;;;;5030955;28;20033;-53
2021/06/11 05:52:32;;;;;;;2.85;2.28;;;;;;;;;;5033132;28;20025;-50
2021/06/11 05:54:58;;;;;;;6.03;2.75;;;;;;;;;;5032821;28;20030;-55
2021/06/11 05:57:25;;;;;;;6.05;2.80;;;;;;;;;;5029351;28;20075;-54
2021/06/11 05:59:53;;;;;;;4.45;3.25;;;;;;;;;;5030022;28;20029;-51
2021/06/11 06:02:19;;;;;;;4.68;3.17;;;;;;;;;;5032742;28;20532;-50
2021/06/11 06:04:45;;;;;;;5.40;2.85;;;;;;;;;;5032512;28;20120;-50
2021/06/11 06:07:11;;;;;;;9.25;3.35;;;;;;;;;;5009302;28;20026;-50
2021/06/11 06:09:37;;;;;;;4.68;2.75;;;;;;;;;;5031655;28;20029;-50
2021/06/11 06:12:03;;;;;;;2.55;2.35;;;;;;;;;;5015883;28;20068;-50
2021/06/11 06:14:29;;;;;;;2.95;2.28;;;;;;;;;;5011648;28;20026;-49
2021/06/11 06:16:55;;;;;;;2.40;2.13;;;;;;;;;;5012180;28;20378;-50
2021/06/11 06:19:21;;;;;;;4.43;2.58;;;;;;;;;;5012866;28;20108;-50
2021/06/11 06:21:47;;;;;;;3.00;2.40;;;;;;;;;;5012667;28;20100;-51
2021/06/11 06:24:13;;;;;;;3.55;2.10;;;;;;;;;;5013051;28;20029;-50
2021/06/11 06:26:39;;;;;;;5.57;2.58;;;;;;;;;;5011996;28;20072;-50
2021/06/11 06:29:05;;;;;;;8.48;2.30;;;;;;;;;;5012407;28;20034;-51
2021/06/11 06:31:31;;;;;;;4.47;3.10;;;;;;;;;;5011767;28;20034;-51
2021/06/11 06:33:57;;;;;;;3.35;2.30;;;;;;;;;;5013217;28;20030;-50
2021/06/11 06:36:23;;;;;;;3.60;2.17;;;;;;;;;;5012353;28;20029;-51
2021/06/11 06:38:51;;;;;;;3.08;2.00;;;;;;;;;;5020310;28;20088;-50
2021/06/11 06:41:18;;;;;;;3.33;2.17;;;;;;;;;;5011914;28;20033;-49
2021/06/11 06:43:44;;;;;;;4.90;2.97;;;;;;;;;;5012526;28;20041;-51
2021/06/11 06:46:10;;;;;;;4.47;2.45;;;;;;;;;;5011920;28;20145;-50
2021/06/11 06:48:36;;;;;;;3.22;2.20;;;;;;;;;;5011983;28;20022;-51
2021/06/11 06:51:03;;;;;;;3.72;2.65;;;;;;;;;;5012312;28;20025;-51
2021/06/11 06:53:29;;;;;;;5.22;3.10;;;;;;;;;;5012312;28;20028;-50
2021/06/11 06:55:55;;;;;;;6.97;2.92;;;;;;;;;;5011920;28;20477;-50
2021/06/11 06:58:21;;;;;;;4.00;2.85;;;;;;;;;;5012124;28;20030;-50
2021/06/11 07:00:47;;;;;;;5.20;3.20;;;;;;;;;;5011667;28;20116;-50
2021/06/11 07:03:13;;;;;;;6.18;2.88;;;;;;;;;;5011925;28;20112;-50
2021/06/11 07:05:39;;;;;;;4.00;2.47;;;;;;;;;;5011958;28;20026;-50
2021/06/11 07:08:05;;;;;;;5.20;2.67;;;;;;;;;;5018267;28;20032;-50
2021/06/11 07:10:31;;;;;;;5.47;2.85;;;;;;;;;;5016055;28;20034;-50
2021/06/11 07:12:57;;;;;;;5.43;3.20;;;;;;;;;;5012024;28;20037;-50
2021/06/11 07:15:23;;;;;;;6.25;2.90;;;;;;;;;;5011471;28;20041;-50
2021/06/11 07:17:49;;;;;;;3.42;2.30;;;;;;;;;;5012117;28;20061;-50
2021/06/11 07:20:15;;;;;;;5.53;3.28;;;;;;;;;;5011819;28;20370;-50
2021/06/11 07:22:41;;;;;;;3.88;2.83;;;;;;;;;;5009314;28;20083;-50
2021/06/11 07:25:07;;;;;;;5.32;3.10;;;;;;;;;;5011732;28;20422;-49
2021/06/11 07:27:34;;;;;;;6.22;2.90;;;;;;;;;;5011933;28;20060;-50
2021/06/11 07:30:04;;;;;;;3.75;2.80;;;;;;;;;;5011854;28;20382;-50
2021/06/11 07:32:30;;;;;;;6.00;2.58;;;;;;;;;;5007661;28;20037;-50
2021/06/11 07:34:56;;;;;;;5.20;2.63;;;;;;;;;;5008320;28;20034;-51
2021/06/11 07:37:22;;;;;;;3.08;2.03;;;;;;;;;;5017553;28;20119;-50
2021/06/11 07:39:48;;;;;;;4.95;3.05;;;;;;;;;;5014253;28;20654;-51
2021/06/11 07:42:14;;;;;;;7.00;2.28;;;;;;;;;;5011523;28;20034;-50
2021/06/11 07:44:40;;;;;;;2.45;2.10;;;;;;;;;;5011843;28;20452;-50
2021/06/11 07:47:07;;;;;;;3.70;2.10;;;;;;;;;;5011747;28;20040;-50
2021/06/11 07:49:33;;;;;;;4.43;2.38;;;;;;;;;;5012090;28;20048;-51
2021/06/11 07:51:59;;;;;;;5.10;2.58;;;;;;;;;;5011814;28;20030;-52
2021/06/11 07:54:25;;;;;;;3.65;2.15;;;;;;;;;;5011878;28;20040;-52
2021/06/11 07:56:51;;;;;;;3.65;2.25;;;;;;;;;;5011190;28;20100;-50
2021/06/11 07:59:17;;;;;;;4.28;2.75;;;;;;;;;;5011623;28;20401;-52
2021/06/11 08:01:44;;;;;;;5.75;2.38;;;;;;;;;;5014861;28;20022;-53
2021/06/11 08:04:10;;;;;;;4.20;2.47;;;;;;;;;;5014968;28;20060;-50
2021/06/11 08:06:36;;;;;;;6.22;3.22;;;;;;;;;;5014981;28;20037;-52
2021/06/11 08:09:01;;;;;;;4.57;2.75;;;;;;;;;;5015847;28;20034;-50
2021/06/11 08:11:27;;;;;;;4.38;2.35;;;;;;;;;;5022435;28;20359;-50
2021/06/11 08:13:53;;;;;;;4.63;2.55;;;;;;;;;;5014584;28;20026;-50
2021/06/11 08:16:20;;;;;;;3.00;2.45;;;;;;;;;;5014070;28;20033;-50
2021/06/11 08:18:46;;;;;;;2.58;2.20;;;;;;;;;;5015099;28;20033;-50
2021/06/11 08:21:12;;;;;;;4.20;2.60;;;;;;;;;;5015115;28;20028;-50
2021/06/11 08:23:38;;;;;;;3.70;2.30;;;;;;;;;;5014203;28;20077;-50
2021/06/11 08:26:04;;;;;;;3.65;2.70;;;;;;;;;;5014322;28;20021;-50
2021/06/11 08:28:30;;;;;;;5.47;1.98;;;;;;;;;;5014411;28;20026;-51
2021/06/11 08:30:56;;;;;;;5.82;2.70;;;;;;;;;;5005862;28;20030;-50
2021/06/11 08:33:22;;;;;;;3.38;2.45;;;;;;;;;;5014886;28;20588;-51
2021/06/11 08:35:48;;;;;;;4.93;2.35;;;;;;;;;;5014264;28;20026;-50
2021/06/11 08:38:14;;;;;;;4.00;2.22;;;;;;;;;;5023330;28;20109;-51
2021/06/11 08:40:41;;;;;;;2.78;2.10;;;;;;;;;;5014283;28;20040;-50
2021/06/11 08:43:07;;;;;;;6.30;2.50;;;;;;;;;;5014317;28;20045;-50
2021/06/11 08:45:33;;;;;;;3.30;2.40;;;;;;;;;;5014228;28;20105;-50
2021/06/11 08:48:00;;;;;;;7.28;2.33;;;;;;;;;;5014538;28;20359;-50
2021/06/11 08:50:30;;;;;;;4.05;2.45;;;;;;;;;;5014582;28;20550;-50
2021/06/11 08:52:56;;;;;;;3.20;2.17;;;;;;;;;;5014382;28;20104;-50
2021/06/11 08:55:22;;;;;;;5.95;2.90;;;;;;;;;;5013788;28;20381;-51
2021/06/11 08:57:49;;;;;;;4.82;3.22;;;;;;;;;;5013285;28;20022;-50
2021/06/11 09:00:15;;;;;;;2.95;2.15;;;;;;;;;;5014041;28;20109;-50
2021/06/11 09:03:00;;;;;;;5.80;2.47;;;;;;;;;;5014284;28;20339;-50
2021/06/11 09:05:26;;;;;;;5.53;2.55;;;;;;;;;;5013517;28;20100;-51
2021/06/11 09:08:10;;;;;;;4.30;2.25;;;;;;;;;;5013918;28;20026;-51
2021/06/11 09:10:36;;;;;;;4.20;2.30;;;;;;;;;;5022746;28;20176;-50
2021/06/11 09:13:02;;;;;;;5.13;2.42;;;;;;;;;;5013356;28;20029;-50
2021/06/11 09:15:28;;;;;;;5.40;2.20;;;;;;;;;;5013606;28;20462;-50
2021/06/11 09:17:55;;;;;;;6.32;2.75;;;;;;;;;;5013990;28;20101;-50
2021/06/11 09:20:23;;;;;;;3.38;2.63;;;;;;;;;;5013539;28;20034;-50
2021/06/11 09:22:50;;;;;;;3.95;2.58;;;;;;;;;;5014147;28;20049;-50
2021/06/11 09:25:27;;;;;;;3.80;2.67;;;;;;;;;;5013447;28;20026;-50
2021/06/11 09:27:54;;;;;;;5.35;2.72;;;;;;;;;;5013311;28;20030;-51
2021/06/11 09:30:21;;;;;;;4.93;2.83;;;;;;;;;;5013431;28;20026;-50
2021/06/11 09:33:04;;;;;;;4.25;2.03;;;;;;;;;;5013249;28;20044;-51
2021/06/11 09:35:32;;;;;;;4.43;2.00;;;;;;;;;;5009677;28;20057;-51
2021/06/11 09:38:10;;;;;;;5.50;2.17;;;;;;;;;;5021217;28;20037;-51
2021/06/11 09:40:36;;;;;;;3.35;2.05;;;;;;;;;;5013319;28;20061;-51
2021/06/11 09:43:02;;;;;;;3.28;2.20;;;;;;;;;;5013177;28;20470;-50
2021/06/11 09:45:29;;;;;;;2.55;2.00;;;;;;;;;;5013007;28;20022;-50
2021/06/11 09:47:55;;;;;;;3.17;2.25;;;;;;;;;;5013270;28;20053;-50
2021/06/11 09:50:26;;;;;;;4.40;2.15;;;;;;;;;;5013286;28;20093;-50
2021/06/11 09:52:54;;;;;;;4.68;2.15;;;;;;;;;;5013133;28;20026;-51
2021/06/11 09:55:27;;;;;;;1.92;1.65;;;;;;;;;;5012106;28;20029;-50
2021/06/11 09:58:13;;;;;;;5.18;1.88;;;;;;;;;;5011340;28;20030;-50
2021/06/11 10:00:41;;;;;;;4.47;1.67;;;;;;;;;;5012352;28;20026;-50
2021/06/11 10:03:11;;;;;;;5.97;2.30;;;;;;;;;;5013272;28;20113;-50
2021/06/11 10:05:38;;;;;;;3.17;2.10;;;;;;;;;;5012808;28;20041;-50
2021/06/11 10:08:05;;;;;;;2.70;1.85;;;;;;;;;;5013174;28;20057;-50
2021/06/11 10:10:31;;;;;;;6.15;1.90;;;;;;;;;;5021006;28;20745;-50
2021/06/11 10:12:57;;;;;;;3.80;1.80;;;;;;;;;;5012029;28;20029;-50
2021/06/11 10:15:23;;;;;;;2.67;1.67;;;;;;;;;;5012174;28;20040;-50
2021/06/11 10:17:49;;;;;;;4.70;2.10;;;;;;;;;;5012866;28;20482;-50
2021/06/11 10:20:15;;;;;;;4.72;1.90;;;;;;;;;;5012696;28;20427;-50
2021/06/11 10:22:41;;;;;;;4.35;2.28;;;;;;;;;;5012706;28;20053;-50
2021/06/11 10:25:11;;;;;;;1.95;1.50;;;;;;;;;;5011271;28;20076;-50
2021/06/11 10:27:38;;;;;;;1.88;1.70;;;;;;;;;;4994913;28;20175;-52
2021/06/11 10:30:04;;;;;;;2.75;1.92;;;;;;;;;;5012421;28;20030;-50
2021/06/11 10:32:31;;;;;;;2.90;2.03;;;;;;;;;;5012575;28;20049;-50
2021/06/11 10:34:57;;;;;;;2.10;1.55;;;;;;;;;;5012678;28;20105;-52
2021/06/11 10:37:44;;;;;;;8.32;1.80;;;;;;;;;;5018044;28;20021;-52
2021/06/11 10:40:14;;;;;;;2.85;1.83;;;;;;;;;;5000858;28;20355;-55
2021/06/11 10:42:40;;;;;;;3.53;1.60;;;;;;;;;;5012062;28;20050;-53
2021/06/11 10:45:06;;;;;;;2.45;1.52;;;;;;;;;;5012333;28;20061;-50
2021/06/11 10:47:34;;;;;;;2.20;1.40;;;;;;;;;;5012310;28;20021;-55
2021/06/11 10:50:01;;;;;;;2.53;1.65;;;;;;;;;;5012205;28;20473;-51
2021/06/11 10:52:31;;;;;;;3.05;1.65;;;;;;;;;;5012319;28;20036;-52
2021/06/11 10:55:25;;;;;;;2.42;1.48;;;;;;;;;;5012377;28;20551;-55
2021/06/11 10:57:51;;;;;;;;;;;;;;;;;;5011699;28;20061;-52
2021/06/11 11:00:22;;;;;;;3.33;2.00;;;;;;;;;;5011895;28;20289;-50
2021/06/11 11:02:53;;;;;;;2.20;1.75;;;;;;;;;;4999826;28;20607;-50
2021/06/11 11:05:42;;;;;;;6.15;1.90;;;;;;;;;;5011995;28;20540;-50
2021/06/11 11:08:09;;;;;;;2.35;1.95;;;;;;;;;;5012160;28;20100;-50
2021/06/11 11:10:43;;;;;;;1.73;1.50;;;;;;;;;;5020460;28;20026;-50
2021/06/11 11:13:09;;;;;;;3.03;1.70;;;;;;;;;;5011874;28;20477;-50
2021/06/11 11:15:37;;;;;;;2.67;2.00;;;;;;;;;;5012337;28;20022;-50
2021/06/11 11:18:04;;;;;;;4.10;2.03;;;;;;;;;;5013648;28;20034;-50
2021/06/11 11:20:31;;;;;;;4.93;1.48;;;;;;;;;;5018488;28;20053;-51
2021/06/11 11:23:01;;;;;;;2.00;1.50;;;;;;;;;;5025616;28;20029;-51
2021/06/11 11:25:28;;;;;;;2.65;1.38;;;;;;;;;;5012109;28;20043;-50
2021/06/11 11:27:55;;;;;;;1.73;0.95;;;;;;;;;;5011204;28;20033;-55
2021/06/11 11:30:23;;;;;;;2.75;1.27;;;;;;;;;;5011460;28;20103;-57
2021/06/11 11:32:50;;;;;;;4.03;1.13;;;;;;;;;;5026196;28;20057;-56
2021/06/11 11:35:17;;;;;;;1.70;1.00;;;;;;;;;;5019291;28;20045;-51
2021/06/11 11:37:44;;;;;;;1.20;0.77;;;;;;;;;;5017360;28;20039;-55
2021/06/11 11:40:10;;;;;;;1.27;0.98;;;;;;;;;;5029385;28;20041;-53
2021/06/11 11:42:36;;;;;;;1.42;0.98;;;;;;;;;;5025587;28;20030;-54
2021/06/11 11:45:02;;;;;;;1.70;0.80;;;;;;;;;;5033597;28;20105;-57
2021/06/11 11:47:28;;;;;;;1.83;1.10;;;;;;;;;;5017710;28;20026;-52
2021/06/11 11:49:54;;;;;;;1.27;0.88;;;;;;;;;;5019984;28;20033;-54
2021/06/11 11:52:20;;;;;;;1.83;0.88;;;;;;;;;;5014267;28;20037;-55
2021/06/11 11:54:46;;;;;;;2.83;0.88;;;;;;;;;;5027920;28;20723;-53
2021/06/11 11:57:12;;;;;;;2.40;1.02;;;;;;;;;;5014060;28;20030;-55
2021/06/11 11:59:38;;;;;;;1.20;1.00;;;;;;;;;;5033017;28;20441;-54
2021/06/11 12:02:07;;;;;;;2.05;0.93;;;;;;;;;;5030416;28;20112;-50
2021/06/11 12:04:33;;;;;;;4.85;0.90;;;;;;;;;;5033994;28;20026;-53
2021/06/11 12:06:59;;;;;;;2.15;1.10;;;;;;;;;;5026787;28;20056;-54
2021/06/11 12:09:25;;;;;;;1.77;0.95;;;;;;;;;;5030529;28;20037;-53
2021/06/11 12:11:51;;;;;;;2.83;1.17;;;;;;;;;;5016206;28;20079;-56
2021/06/11 12:14:17;;;;;;;1.80;1.20;;;;;;;;;;5016287;28;20116;-51
2021/06/11 12:16:43;;;;;;;1.40;0.88;;;;;;;;;;5014668;28;20176;-53
2021/06/11 12:19:09;;;;;;;1.70;1.13;;;;;;;;;;5015111;28;20029;-50
2021/06/11 12:21:35;;;;;;;1.95;1.00;;;;;;;;;;5019880;28;20585;-56
2021/06/11 12:24:01;;;;;;;1.75;1.00;;;;;;;;;;5014255;28;20036;-54
2021/06/11 12:26:27;;;;;;;4.40;1.05;;;;;;;;;;5013409;28;20478;-54
2021/06/11 12:28:54;;;;;;;2.03;0.93;;;;;;;;;;5013388;28;20036;-55
2021/06/11 12:31:20;;;;;;;1.65;1.10;;;;;;;;;;5013719;28;20358;-51
2021/06/11 12:33:46;;;;;;;3.13;0.90;;;;;;;;;;5018895;28;20168;-53
2021/06/11 12:36:12;;;;;;;1.45;1.08;;;;;;;;;;5015315;28;20523;-51
2021/06/11 12:38:38;;;;;;;2.55;1.00;;;;;;;;;;5022143;28;20032;-54
2021/06/11 12:41:06;;;;;;;3.30;1.48;;;;;;;;;;5013564;28;20042;-55
2021/06/11 12:46:24;;;;;;;1.85;1.23;;;;;;;;;;5017753;28;20496;-51
2021/06/11 12:48:50;;;;;;;;;;;;;;;;;;5027297;28;20022;-54
2021/06/11 12:51:17;;;;;;;1.08;0.88;;;;;;;;;;5013743;28;19970;-55
2021/06/11 12:53:43;;;;;;;1.75;1.05;;;;;;;;;;5025020;28;20036;-54
2021/06/11 12:56:10;;;;;;;3.22;0.90;;;;;;;;;;5018359;28;20099;-51
2021/06/11 12:58:36;;;;;;;1.85;0.98;;;;;;;;;;5021801;28;20554;-51
2021/06/11 13:01:02;;;;;;;1.73;1.02;;;;;;;;;;5014702;28;20037;-54
2021/06/11 13:03:28;;;;;;;1.33;0.70;;;;;;;;;;5021536;28;20025;-53
2021/06/11 13:05:54;;;;;;;1.63;0.82;;;;;;;;;;5023168;28;20484;-54
2021/06/11 13:08:20;;;;;;;2.90;1.15;;;;;;;;;;5012015;28;20026;-53
2021/06/11 13:10:47;;;;;;;1.98;0.90;;;;;;;;;;5018167;28;20580;-56
2021/06/11 13:13:13;;;;;;;2.55;1.02;;;;;;;;;;5021958;28;20405;-57
2021/06/11 13:15:39;;;;;;;1.80;0.98;;;;;;;;;;5012458;28;20088;-51
2021/06/11 13:18:06;;;;;;;1.92;1.10;;;;;;;;;;5020031;28;20037;-55
2021/06/11 13:20:32;;;;;;;1.98;1.20;;;;;;;;;;5028449;28;20033;-54
2021/06/11 13:22:58;;;;;;;2.38;0.95;;;;;;;;;;5019515;28;20109;-55
2021/06/11 13:25:24;;;;;;;8.00;1.70;;;;;;;;;;5024749;28;20343;-53
2021/06/11 13:27:50;;;;;;;6.57;1.40;;;;;;;;;;5016506;28;20110;-53
2021/06/11 13:30:16;;;;;;;4.55;1.30;;;;;;;;;;5012342;28;20053;-55
2021/06/11 13:32:43;;;;;;;1.98;1.15;;;;;;;;;;5015009;28;20535;-53
2021/06/11 13:35:09;;;;;;;1.60;1.08;;;;;;;;;;5010093;28;20113;-55
2021/06/11 13:37:35;;;;;;;1.73;1.10;;;;;;;;;;5012026;28;20014;-55
2021/06/11 13:40:01;;;;;;;1.83;0.82;;;;;;;;;;5012865;28;20030;-56
2021/06/11 13:42:27;;;;;;;3.20;1.52;;;;;;;;;;5015587;28;20034;-57
2021/06/11 13:44:53;;;;;;;2.35;0.80;;;;;;;;;;5014640;28;20025;-56
2021/06/11 13:47:19;;;;;;;4.07;1.10;;;;;;;;;;5011788;28;20044;-54
2021/06/11 13:49:45;;;;;;;1.08;0.82;;;;;;;;;;5012326;28;20060;-53
2021/06/11 13:52:11;;;;;;;3.45;0.85;;;;;;;;;;5020503;28;20033;-54
2021/06/11 13:54:37;;;;;;;1.67;0.70;;;;;;;;;;5012296;28;20065;-56
2021/06/11 13:57:03;;;;;;;1.55;0.82;;;;;;;;;;5018230;28;20052;-53
2021/06/11 13:59:29;;;;;;;1.10;0.70;;;;;;;;;;5018165;28;20045;-50
2021/06/11 14:01:56;;;;;;;0.75;0.50;;;;;;;;;;5023375;28;20026;-53
2021/06/11 14:04:22;;;;;;;1.45;0.75;;;;;;;;;;5015579;28;20505;-51
2021/06/11 14:06:48;;;;;;;3.33;0.50;;;;;;;;;;5013870;28;20030;-51
2021/06/11 14:09:14;;;;;;;6.97;1.55;;;;;;;;;;5012599;28;20056;-52
2021/06/11 14:11:40;;;;;;;2.58;0.60;;;;;;;;;;5016061;28;20125;-52
2021/06/11 14:14:07;;;;;;;1.50;0.60;;;;;;;;;;5011663;28;20377;-52
2021/06/11 14:16:33;;;;;;;2.47;0.82;;;;;;;;;;5016867;28;20501;-52
2021/06/11 14:19:00;;;;;;;2.00;0.60;;;;;;;;;;5012562;28;20080;-53
2021/06/11 14:21:26;;;;;;;2.60;1.02;;;;;;;;;;5013869;28;20092;-52
2021/06/11 14:23:52;;;;;;;1.80;0.90;;;;;;;;;;5017239;28;20021;-53
2021/06/11 14:26:18;;;;;;;1.73;0.80;;;;;;;;;;5013180;28;20066;-54
2021/06/11 14:28:44;;;;;;;1.73;0.80;;;;;;;;;;5011178;28;20366;-54
2021/06/11 14:31:10;;;;;;;0.80;0.57;;;;;;;;;;5011873;28;20116;-53
2021/06/11 14:33:37;;;;;;;5.03;0.88;;;;;;;;;;5014141;28;20030;-54
2021/06/11 14:36:04;;;;;;;0.85;0.68;;;;;;;;;;5019506;28;20108;-51
2021/06/11 14:38:30;;;;;;;1.75;0.70;;;;;;;;;;5016523;28;20172;-51
2021/06/11 14:40:56;;;;;;;1.27;0.65;;;;;;;;;;5012636;28;20116;-54
2021/06/11 14:43:22;;;;;;;5.82;0.80;;;;;;;;;;5013437;28;20410;-52
2021/06/11 14:45:48;;;;;;;1.38;0.73;;;;;;;;;;5015321;28;20030;-51